createdAt,value
2022-12-18T00:01:59.936Z,-0.46
2022-12-18T00:04:29.126Z,-0.46
2022-12-18T00:06:57.628Z,-0.49
2022-12-18T00:09:25.908Z,-0.48
2022-12-18T00:14:45.169Z,-0.51
2022-12-18T00:17:13.190Z,-0.53
2022-12-18T00:19:41.146Z,-0.54
2022-12-18T00:22:09.184Z,-0.54
2022-12-18T00:24:37.233Z,-0.55
2022-12-18T00:27:05.310Z,-0.57
2022-12-18T00:29:33.382Z,-0.58
2022-12-18T00:32:01.392Z,-0.56
2022-12-18T00:34:29.649Z,-0.55
2022-12-18T00:36:57.812Z,-0.58
2022-12-18T00:39:26.117Z,-0.60
2022-12-18T00:42:12.680Z,-0.59
2022-12-18T00:44:41.292Z,-0.59
2022-12-18T00:47:09.479Z,-0.63
2022-12-18T00:49:37.589Z,-0.67
2022-12-18T00:52:05.780Z,-0.72
2022-12-18T00:54:33.857Z,-0.73
2022-12-18T00:57:02.145Z,-0.74
2022-12-18T00:59:31.254Z,-0.77
2022-12-18T01:01:59.396Z,-0.79
2022-12-18T01:04:27.929Z,-0.78
2022-12-18T01:06:56.936Z,-0.83
2022-12-18T01:09:25.216Z,-0.82
2022-12-18T01:11:53.704Z,-0.84
2022-12-18T01:14:21.814Z,-0.86
2022-12-18T01:16:50.168Z,-0.88
2022-12-18T01:19:18.404Z,-0.92
2022-12-18T01:21:48.501Z,-0.96
2022-12-18T01:24:16.581Z,-0.97
2022-12-18T01:26:44.602Z,-1.01
2022-12-18T01:29:12.646Z,-1.07
2022-12-18T01:31:40.791Z,-1.13
2022-12-18T01:34:10.090Z,-1.17
2022-12-18T01:36:40.163Z,-1.18
2022-12-18T01:39:14.600Z,-1.21
2022-12-18T01:42:04.157Z,-1.22
2022-12-18T01:44:54.181Z,-1.19
2022-12-18T01:47:22.119Z,-1.17
2022-12-18T01:49:50.651Z,-1.19
2022-12-18T01:52:20.166Z,-1.20
2022-12-18T01:54:52.135Z,-1.15
2022-12-18T01:57:21.154Z,-1.14
2022-12-18T01:59:54.092Z,-1.12
2022-12-18T02:02:22.837Z,-1.13
2022-12-18T02:04:50.912Z,-1.15
2022-12-18T02:07:41.220Z,-1.16
2022-12-18T02:10:28.463Z,-1.23
2022-12-18T02:13:32.267Z,-1.25
2022-12-18T02:16:16.972Z,-1.28
2022-12-18T02:18:49.864Z,-1.32
2022-12-18T02:21:47.302Z,-1.34
2022-12-18T02:24:15.260Z,-1.36
2022-12-18T02:26:58.315Z,-1.37
2022-12-18T02:29:36.613Z,-1.38
2022-12-18T02:32:11.600Z,-1.39
2022-12-18T02:34:41.096Z,-1.46
2022-12-18T02:37:17.372Z,-1.48
2022-12-18T02:39:49.035Z,-1.52
2022-12-18T02:42:18.726Z,-1.55
2022-12-18T02:44:50.424Z,-1.55
2022-12-18T02:47:24.228Z,-1.55
2022-12-18T02:49:58.611Z,-1.56
2022-12-18T02:52:54.489Z,-1.59
2022-12-18T02:55:33.746Z,-1.68
2022-12-18T02:58:19.862Z,-1.76
2022-12-18T03:01:00.649Z,-1.82
2022-12-18T03:04:05.371Z,-1.83
2022-12-18T03:06:39.234Z,-1.84
2022-12-18T03:09:15.911Z,-1.86
2022-12-18T03:12:09.867Z,-1.87
2022-12-18T03:14:39.579Z,-1.83
2022-12-18T03:17:20.439Z,-1.85
2022-12-18T03:19:50.306Z,-1.87
2022-12-18T03:22:19.392Z,-1.76
2022-12-18T03:24:52.697Z,-1.67
2022-12-18T03:27:23.687Z,-1.61
2022-12-18T03:30:13.652Z,-1.51
2022-12-18T03:33:08.084Z,-1.40
2022-12-18T03:35:41.255Z,-1.32
2022-12-18T03:38:11.492Z,-1.28
2022-12-18T03:41:05.983Z,-1.20
2022-12-18T03:44:19.983Z,-1.14
2022-12-18T03:46:59.290Z,-1.22
2022-12-18T03:49:46.499Z,-1.21
2022-12-18T03:52:31.400Z,-1.16
2022-12-18T03:55:01.191Z,-1.13
2022-12-18T03:57:32.570Z,-1.14
2022-12-18T04:00:17.363Z,-1.16
2022-12-18T04:03:05.970Z,-1.11
2022-12-18T04:05:43.586Z,-1.09
2022-12-18T04:08:12.113Z,-1.07
2022-12-18T04:10:43.011Z,-1.11
2022-12-18T04:13:11.317Z,-1.14
2022-12-18T04:15:40.576Z,-1.15
2022-12-18T04:18:10.353Z,-1.22
2022-12-18T04:20:41.232Z,-1.26
2022-12-18T04:23:09.792Z,-1.32
2022-12-18T04:25:38.285Z,-1.35
2022-12-18T04:28:09.226Z,-1.37
2022-12-18T04:30:37.423Z,-1.42
2022-12-18T04:33:10.136Z,-1.47
2022-12-18T04:35:38.598Z,-1.50
2022-12-18T04:38:09.370Z,-1.53
2022-12-18T04:40:38.706Z,-1.57
2022-12-18T04:43:12.049Z,-1.59
2022-12-18T04:45:40.637Z,-1.61
2022-12-18T04:48:08.886Z,-1.63
2022-12-18T04:50:37.529Z,-1.64
2022-12-18T04:53:05.613Z,-1.68
2022-12-18T04:55:33.692Z,-1.69
2022-12-18T04:58:01.619Z,-1.72
2022-12-18T05:00:29.696Z,-1.71
2022-12-18T05:02:57.947Z,-1.71
2022-12-18T05:05:26.308Z,-1.70
2022-12-18T05:07:54.333Z,-1.69
2022-12-18T05:10:22.457Z,-1.67
2022-12-18T05:13:01.281Z,-1.67
2022-12-18T05:15:31.445Z,-1.68
2022-12-18T05:18:01.056Z,-1.67
2022-12-18T05:20:29.803Z,-1.66
2022-12-18T05:22:58.029Z,-1.67
2022-12-18T05:25:26.140Z,-1.68
2022-12-18T05:27:54.293Z,-1.69
2022-12-18T05:30:23.521Z,-1.69
2022-12-18T05:32:51.683Z,-1.69
2022-12-18T05:35:19.869Z,-1.70
2022-12-18T05:37:48.002Z,-1.72
2022-12-18T05:40:16.047Z,-1.75
2022-12-18T05:42:44.199Z,-1.78
2022-12-18T05:45:12.182Z,-1.80
2022-12-18T05:47:40.217Z,-1.79
2022-12-18T05:50:08.969Z,-1.78
2022-12-18T05:52:37.161Z,-1.83
2022-12-18T05:55:05.954Z,-1.86
2022-12-18T05:57:33.814Z,-1.88
2022-12-18T06:00:02.102Z,-1.95
2022-12-18T06:02:40.402Z,-1.98
2022-12-18T06:05:08.925Z,-2.00
2022-12-18T06:07:36.920Z,-1.97
2022-12-18T06:10:05.480Z,-1.95
2022-12-18T06:12:34.722Z,-1.89
2022-12-18T06:15:03.263Z,-1.80
2022-12-18T06:17:32.729Z,-1.73
2022-12-18T06:20:01.460Z,-1.72
2022-12-18T06:22:32.878Z,-1.68
2022-12-18T06:25:01.323Z,-1.59
2022-12-18T06:27:29.818Z,-1.54
2022-12-18T06:29:57.995Z,-1.56
2022-12-18T06:32:26.084Z,-1.52
2022-12-18T06:34:54.978Z,-1.57
2022-12-18T06:37:27.122Z,-1.52
2022-12-18T06:39:55.236Z,-1.60
2022-12-18T06:42:23.926Z,-1.48
2022-12-18T06:44:52.014Z,-1.45
2022-12-18T06:47:20.081Z,-1.51
2022-12-18T06:49:48.161Z,-1.51
2022-12-18T06:52:16.141Z,-1.45
2022-12-18T06:54:44.432Z,-1.37
2022-12-18T06:57:12.586Z,-1.31
2022-12-18T06:59:40.797Z,-1.27
2022-12-18T07:02:13.298Z,-1.26
2022-12-18T07:04:41.332Z,-1.26
2022-12-18T07:07:09.842Z,-1.27
2022-12-18T07:09:37.919Z,-1.30
2022-12-18T07:12:06.120Z,-1.32
2022-12-18T07:14:34.591Z,-1.35
2022-12-18T07:17:02.823Z,-1.39
2022-12-18T07:19:31.467Z,-1.39
2022-12-18T07:22:00.800Z,-1.38
2022-12-18T07:24:29.567Z,-1.41
2022-12-18T07:26:57.849Z,-1.48
2022-12-18T07:29:25.830Z,-1.51
2022-12-18T07:31:53.937Z,-1.53
2022-12-18T07:34:21.996Z,-1.58
2022-12-18T07:36:50.067Z,-1.64
2022-12-18T07:39:18.198Z,-1.64
2022-12-18T07:42:09.056Z,-1.59
2022-12-18T07:44:37.770Z,-1.60
2022-12-18T07:47:10.460Z,-1.61
2022-12-18T07:49:40.262Z,-1.61
2022-12-18T07:52:09.297Z,-1.57
2022-12-18T07:54:37.338Z,-1.55
2022-12-18T07:57:16.421Z,-1.50
2022-12-18T07:59:53.972Z,-1.47
2022-12-18T08:02:22.263Z,-1.45
2022-12-18T08:04:50.649Z,-1.36
2022-12-18T08:07:18.812Z,-1.32
2022-12-18T08:09:46.844Z,-1.29
2022-12-18T08:12:14.886Z,-1.23
2022-12-18T08:14:42.970Z,-1.20
2022-12-18T08:17:11.108Z,-1.15
2022-12-18T08:19:39.154Z,-1.12
2022-12-18T08:22:07.203Z,-1.07
2022-12-18T08:24:35.343Z,-1.15
2022-12-18T08:29:51.314Z,-1.07
2022-12-18T08:32:19.531Z,-1.07
2022-12-18T08:34:47.772Z,-1.07
2022-12-18T08:37:15.747Z,-1.08
2022-12-18T08:39:43.825Z,-1.12
2022-12-18T08:42:30.915Z,-1.18
2022-12-18T08:44:59.390Z,-1.16
2022-12-18T08:47:27.398Z,-1.10
2022-12-18T08:49:55.907Z,-1.12
2022-12-18T08:52:24.275Z,-1.13
2022-12-18T08:54:52.281Z,-1.11
2022-12-18T08:57:20.554Z,-1.08
2022-12-18T08:59:49.369Z,-1.04
2022-12-18T09:02:18.529Z,-0.98
2022-12-18T09:04:53.833Z,-0.92
2022-12-18T09:07:25.314Z,-0.88
2022-12-18T09:09:53.439Z,-0.87
2022-12-18T09:12:21.520Z,-0.86
2022-12-18T09:14:49.571Z,-0.79
2022-12-18T09:17:17.722Z,-0.71
2022-12-18T09:19:46.129Z,-0.65
2022-12-18T09:22:14.252Z,-0.59
2022-12-18T09:24:42.549Z,-0.51
2022-12-18T09:27:10.544Z,-0.48
2022-12-18T09:29:38.788Z,-0.48
2022-12-18T09:32:06.896Z,-0.45
2022-12-18T09:34:35.352Z,-0.48
2022-12-18T09:37:03.351Z,-0.50
2022-12-18T09:39:31.399Z,-0.53
2022-12-18T09:42:00.399Z,-0.60
2022-12-18T09:44:43.159Z,-0.60
2022-12-18T09:47:29.943Z,-0.63
2022-12-18T09:50:04.999Z,-0.61
2022-12-18T09:52:41.262Z,-0.57
2022-12-18T09:55:11.996Z,-0.54
2022-12-18T09:57:49.126Z,-0.44
2022-12-18T10:00:25.161Z,-0.32
2022-12-18T10:02:59.731Z,-0.22
2022-12-18T10:05:47.074Z,-0.02
2022-12-18T10:08:47.516Z,0.15
2022-12-18T10:11:27.429Z,0.21
2022-12-18T10:14:01.905Z,0.13
2022-12-18T10:16:32.687Z,0.08
2022-12-18T10:19:19.483Z,0.02
2022-12-18T10:21:56.508Z,-0.05
2022-12-18T10:24:47.694Z,-0.05
2022-12-18T10:27:18.687Z,0.15
2022-12-18T10:29:47.371Z,0.30
2022-12-18T10:32:19.764Z,0.40
2022-12-18T10:34:50.650Z,0.41
2022-12-18T10:37:24.265Z,0.35
2022-12-18T10:40:21.774Z,0.28
2022-12-18T10:43:13.921Z,0.25
2022-12-18T10:45:43.406Z,0.20
2022-12-18T10:48:22.192Z,0.26
2022-12-18T10:51:12.837Z,0.34
2022-12-18T10:53:44.006Z,0.44
2022-12-18T10:56:13.534Z,0.49
2022-12-18T10:58:41.812Z,0.47
2022-12-18T11:01:12.532Z,0.44
2022-12-18T11:04:01.652Z,0.38
2022-12-18T11:06:30.641Z,0.35
2022-12-18T11:09:09.379Z,0.28
2022-12-18T11:11:40.826Z,0.30
2022-12-18T11:14:22.719Z,0.30
2022-12-18T11:19:42.460Z,0.25
2022-12-18T11:22:29.974Z,0.25
2022-12-18T11:28:00.743Z,0.27
2022-12-18T11:30:34.538Z,0.26
2022-12-18T11:33:17.467Z,0.29
2022-12-18T11:36:06.614Z,0.28
2022-12-18T11:38:41.059Z,0.24
2022-12-18T11:41:48.495Z,0.26
2022-12-18T11:44:32.979Z,0.33
2022-12-18T11:47:13.607Z,0.43
2022-12-18T11:49:42.613Z,0.36
2022-12-18T11:52:22.996Z,0.40
2022-12-18T11:54:59.759Z,0.55
2022-12-18T11:57:41.819Z,0.67
2022-12-18T12:00:16.909Z,0.70
2022-12-18T12:03:03.376Z,0.62
2022-12-18T12:05:53.714Z,0.58
2022-12-18T12:08:42.181Z,0.58
2022-12-18T12:11:19.763Z,0.50
2022-12-18T12:14:32.745Z,0.36
2022-12-18T12:17:15.158Z,0.37
2022-12-18T12:19:54.708Z,0.47
2022-12-18T12:22:22.847Z,0.57
2022-12-18T12:25:12.225Z,0.63
2022-12-18T12:28:27.048Z,0.63
2022-12-18T12:31:13.330Z,0.56
2022-12-18T12:33:47.433Z,0.47
2022-12-18T12:36:49.612Z,0.38
2022-12-18T12:39:24.356Z,0.49
2022-12-18T12:42:11.469Z,0.52
2022-12-18T12:44:54.271Z,0.50
2022-12-18T12:47:32.089Z,0.50
2022-12-18T12:50:08.126Z,0.58
2022-12-18T12:52:42.155Z,0.66
2022-12-18T12:58:43.399Z,0.68
2022-12-18T13:02:03.019Z,0.61
2022-12-18T13:04:45.859Z,0.40
2022-12-18T13:07:18.316Z,0.28
2022-12-18T13:13:17.894Z,0.18
2022-12-18T13:13:45.036Z,0.22
2022-12-18T13:16:09.271Z,0.16
2022-12-18T13:18:37.449Z,0.19
2022-12-18T13:21:22.402Z,0.14
2022-12-18T13:23:50.790Z,0.10
2022-12-18T13:26:23.222Z,0.05
2022-12-18T13:28:57.930Z,-0.01
2022-12-18T13:31:41.870Z,-0.05
2022-12-18T13:34:32.703Z,-0.14
2022-12-18T13:37:32.545Z,-0.21
2022-12-18T13:40:00.869Z,-0.24
2022-12-18T13:42:57.734Z,-0.26
2022-12-18T13:45:50.375Z,-0.31
2022-12-18T13:48:22.682Z,-0.38
2022-12-18T13:51:12.065Z,-0.39
2022-12-18T13:54:00.819Z,-0.42
2022-12-18T13:56:31.635Z,-0.49
2022-12-18T13:59:16.667Z,-0.55
2022-12-18T14:01:51.757Z,-0.60
2022-12-18T14:04:35.677Z,-0.68
2022-12-18T14:07:08.158Z,-0.75
2022-12-18T14:09:40.678Z,-0.84
2022-12-18T14:12:43.553Z,-0.91
2022-12-18T14:15:23.615Z,-0.98
2022-12-18T14:17:53.881Z,-1.05
2022-12-18T14:20:22.846Z,-1.14
2022-12-18T14:22:51.131Z,-1.23
2022-12-18T14:25:20.786Z,-1.30
2022-12-18T14:28:03.882Z,-1.38
2022-12-18T14:30:39.422Z,-1.47
2022-12-18T14:33:13.768Z,-1.54
2022-12-18T14:35:44.801Z,-1.57
2022-12-18T14:38:27.878Z,-1.62
2022-12-18T14:41:02.155Z,-1.66
2022-12-18T14:43:34.283Z,-1.68
2022-12-18T14:46:04.619Z,-1.74
2022-12-18T14:48:40.557Z,-1.80
2022-12-18T14:51:11.969Z,-1.86
2022-12-18T14:53:49.138Z,-1.92
2022-12-18T14:56:25.068Z,-1.96
2022-12-18T14:58:56.859Z,-2.00
2022-12-18T15:01:27.511Z,-2.04
2022-12-18T15:03:57.245Z,-2.05
2022-12-18T15:06:40.943Z,-2.09
2022-12-18T15:09:27.709Z,-2.14
2022-12-18T15:12:01.081Z,-2.19
2022-12-18T15:14:34.235Z,-2.20
2022-12-18T15:17:06.204Z,-2.23
2022-12-18T15:19:42.678Z,-2.27
2022-12-18T15:22:28.656Z,-2.32
2022-12-18T15:24:58.922Z,-2.37
2022-12-18T15:27:35.985Z,-2.42
2022-12-18T15:30:09.815Z,-2.50
2022-12-18T15:32:39.755Z,-2.58
2022-12-18T15:35:20.149Z,-2.65
2022-12-18T15:37:49.292Z,-2.70
2022-12-18T15:40:20.137Z,-2.74
2022-12-18T15:43:08.491Z,-2.76
2022-12-18T15:45:36.588Z,-2.78
2022-12-18T15:48:22.570Z,-2.78
2022-12-18T15:50:57.914Z,-2.79
2022-12-18T15:53:30.230Z,-2.83
2022-12-18T15:56:17.934Z,-2.86
2022-12-18T15:58:46.502Z,-2.93
2022-12-18T16:01:15.099Z,-2.96
2022-12-18T16:03:44.147Z,-3.01
2022-12-18T16:06:12.580Z,-3.04
2022-12-18T16:08:40.790Z,-3.09
2022-12-18T16:11:39.577Z,-3.13
2022-12-18T16:14:22.297Z,-3.16
2022-12-18T16:16:53.430Z,-3.15
2022-12-18T16:19:22.962Z,-3.16
2022-12-18T16:21:53.403Z,-3.14
2022-12-18T16:24:30.693Z,-3.14
2022-12-18T16:27:01.359Z,-3.11
2022-12-18T16:29:30.537Z,-3.11
2022-12-18T16:32:00.334Z,-3.13
2022-12-18T16:34:35.616Z,-3.22
2022-12-18T16:37:06.799Z,-3.28
2022-12-18T16:39:36.237Z,-3.38
2022-12-18T16:42:19.906Z,-3.45
2022-12-18T16:44:50.653Z,-3.51
2022-12-18T16:47:19.789Z,-3.57
2022-12-18T16:49:51.882Z,-3.64
2022-12-18T16:52:21.319Z,-3.68
2022-12-18T16:54:49.537Z,-3.70
2022-12-18T16:57:20.291Z,-3.74
2022-12-18T16:59:50.100Z,-3.78
2022-12-18T17:02:23.372Z,-3.79
2022-12-18T17:04:57.421Z,-3.80
2022-12-18T17:07:26.764Z,-3.81
2022-12-18T17:09:55.553Z,-3.79
2022-12-18T17:12:24.226Z,-3.78
2022-12-18T17:14:52.486Z,-3.78
2022-12-18T17:17:22.662Z,-3.76
2022-12-18T17:19:52.652Z,-3.78
2022-12-18T17:22:21.814Z,-3.83
2022-12-18T17:24:50.467Z,-3.85
2022-12-18T17:27:18.537Z,-3.90
2022-12-18T17:29:48.280Z,-3.91
2022-12-18T17:32:18.274Z,-3.91
2022-12-18T17:34:46.974Z,-3.96
2022-12-18T17:37:15.873Z,-3.99
2022-12-18T17:39:43.910Z,-4.06
2022-12-18T17:42:15.505Z,-4.09
2022-12-18T17:44:45.114Z,-4.13
2022-12-18T17:47:15.179Z,-4.16
2022-12-18T17:49:43.334Z,-4.19
2022-12-18T17:52:11.375Z,-4.27
2022-12-18T17:54:42.339Z,-4.27
2022-12-18T17:57:10.854Z,-4.32
2022-12-18T17:59:39.039Z,-4.37
2022-12-18T18:02:09.909Z,-4.35
2022-12-18T18:04:38.392Z,-4.41
2022-12-18T18:07:06.375Z,-4.39
2022-12-18T18:09:34.635Z,-4.41
2022-12-18T18:12:21.296Z,-4.44
2022-12-18T18:14:49.421Z,-4.44
2022-12-18T18:17:17.911Z,-4.50
2022-12-18T18:19:49.648Z,-4.43
2022-12-18T18:22:19.193Z,-4.41
2022-12-18T18:24:48.299Z,-4.39
2022-12-18T18:27:16.915Z,-4.38
2022-12-18T18:29:48.059Z,-4.37
2022-12-18T18:32:16.782Z,-4.38
2022-12-18T18:34:45.435Z,-4.38
2022-12-18T18:37:13.806Z,-4.39
2022-12-18T18:39:41.883Z,-4.39
2022-12-18T18:42:09.975Z,-4.38
2022-12-18T18:44:38.141Z,-4.36
2022-12-18T18:47:08.589Z,-4.43
2022-12-18T18:49:37.996Z,-4.47
2022-12-18T18:52:07.406Z,-4.48
2022-12-18T18:54:35.702Z,-4.46
2022-12-18T18:57:20.286Z,-4.42
2022-12-18T18:59:49.191Z,-4.41
2022-12-18T19:02:17.746Z,-4.43
2022-12-18T19:04:46.994Z,-4.40
2022-12-18T19:07:29.840Z,-4.40
2022-12-18T19:10:05.208Z,-4.44
2022-12-18T19:12:53.637Z,-4.42
2022-12-18T19:15:22.988Z,-4.45
2022-12-18T19:17:51.196Z,-4.41
2022-12-18T19:20:19.678Z,-4.41
2022-12-18T19:22:55.229Z,-4.38
2022-12-18T19:25:30.692Z,-4.37
2022-12-18T19:28:15.824Z,-4.34
2022-12-18T19:30:58.603Z,-4.33
2022-12-18T19:33:42.832Z,-4.28
2022-12-18T19:36:25.253Z,-4.25
2022-12-18T19:38:55.967Z,-4.25
2022-12-18T19:41:25.600Z,-4.28
2022-12-18T19:43:55.843Z,-4.27
2022-12-18T19:46:24.572Z,-4.27
2022-12-18T19:48:52.929Z,-4.27
2022-12-18T19:51:24.543Z,-4.29
2022-12-18T19:53:58.601Z,-4.34
2022-12-18T19:56:31.092Z,-4.35
2022-12-18T19:59:00.824Z,-4.36
2022-12-18T20:01:30.033Z,-4.33
2022-12-18T20:03:59.797Z,-4.34
2022-12-18T20:06:53.520Z,-4.31
2022-12-18T20:09:22.115Z,-4.30
2022-12-18T20:11:50.909Z,-4.26
2022-12-18T20:14:23.435Z,-4.22
2022-12-18T20:19:40.736Z,-4.22
2022-12-18T20:20:46.570Z,-4.23
2022-12-18T20:22:09.239Z,-4.24
2022-12-18T20:24:37.330Z,-4.27
2022-12-18T20:27:08.646Z,-4.29
2022-12-18T20:29:40.667Z,-4.29
2022-12-18T20:32:08.777Z,-4.30
2022-12-18T20:34:37.109Z,-4.32
2022-12-18T20:37:05.628Z,-4.29
2022-12-18T20:39:34.188Z,-4.29
2022-12-18T20:42:02.813Z,-4.33
2022-12-18T20:44:30.888Z,-4.33
2022-12-18T20:47:03.371Z,-4.30
2022-12-18T20:49:37.280Z,-4.27
2022-12-18T20:52:07.222Z,-4.28
2022-12-18T20:54:35.296Z,-4.29
2022-12-18T20:57:03.379Z,-4.34
2022-12-18T20:59:31.461Z,-4.38
2022-12-18T21:01:59.673Z,-4.43
2022-12-18T21:04:28.280Z,-4.47
2022-12-18T21:07:02.396Z,-4.52
2022-12-18T21:09:37.587Z,-4.58
2022-12-18T21:12:34.959Z,-4.59
2022-12-18T21:15:11.281Z,-4.62
2022-12-18T21:17:44.122Z,-4.63
2022-12-18T21:20:17.542Z,-4.65
2022-12-18T21:22:47.389Z,-4.65
2022-12-18T21:25:15.467Z,-4.68
2022-12-18T21:27:43.750Z,-4.68
2022-12-18T21:30:12.446Z,-4.73
2022-12-18T21:32:40.804Z,-4.72
2022-12-18T21:35:09.556Z,-4.73
2022-12-18T21:37:37.532Z,-4.72
2022-12-18T21:40:06.519Z,-4.82
2022-12-18T21:42:53.342Z,-5.01
2022-12-18T21:45:21.702Z,-5.19
2022-12-18T21:47:49.791Z,-5.32
2022-12-18T21:50:18.158Z,-5.40
2022-12-18T21:52:46.378Z,-5.41
2022-12-18T21:55:14.455Z,-5.52
2022-12-18T21:57:42.420Z,-5.52
2022-12-18T22:00:18.610Z,-5.57
2022-12-18T22:03:15.435Z,-5.54
2022-12-18T22:05:38.122Z,-5.55
2022-12-18T22:08:07.539Z,-5.60
2022-12-18T22:10:36.889Z,-5.61
2022-12-18T22:13:07.094Z,-5.67
2022-12-18T22:15:35.080Z,-5.74
2022-12-18T22:18:03.440Z,-5.78
2022-12-18T22:20:31.826Z,-5.86
2022-12-18T22:23:02.890Z,-5.88
2022-12-18T22:25:37.308Z,-5.92
2022-12-18T22:28:26.781Z,-5.90
2022-12-18T22:30:59.578Z,-5.92
2022-12-18T22:33:29.802Z,-5.91
2022-12-18T22:35:58.061Z,-5.92
2022-12-18T22:38:26.266Z,-5.99
2022-12-18T22:40:55.275Z,-6.04
2022-12-18T22:43:23.551Z,-6.06
2022-12-18T22:45:51.579Z,-6.08
2022-12-18T22:48:20.122Z,-6.04
2022-12-18T22:50:48.143Z,-6.06
2022-12-18T22:53:17.927Z,-6.05
2022-12-18T22:55:46.107Z,-6.09
2022-12-18T22:58:14.189Z,-6.17
2022-12-18T23:00:42.478Z,-6.25
2022-12-18T23:03:10.790Z,-6.31
2022-12-18T23:05:39.045Z,-6.33
2022-12-18T23:08:07.386Z,-6.34
2022-12-18T23:10:38.811Z,-6.28
2022-12-18T23:13:07.177Z,-6.29
2022-12-18T23:15:35.464Z,-6.29
2022-12-18T23:18:03.876Z,-6.29
2022-12-18T23:20:32.040Z,-6.25
2022-12-18T23:23:00.227Z,-6.20
2022-12-18T23:25:28.408Z,-6.17
2022-12-18T23:27:56.381Z,-6.15
2022-12-18T23:30:24.728Z,-6.12
2022-12-18T23:32:52.831Z,-6.20
2022-12-18T23:35:21.140Z,-6.26
2022-12-18T23:37:58.849Z,-6.29
2022-12-18T23:40:29.515Z,-6.36
2022-12-18T23:42:59.214Z,-6.38
2022-12-18T23:45:27.590Z,-6.38
2022-12-18T23:47:55.840Z,-6.32
2022-12-18T23:50:28.846Z,-6.28
2022-12-18T23:53:04.738Z,-6.25
2022-12-18T23:55:40.097Z,-6.31
2022-12-18T23:58:18.976Z,-6.35
